Time;durP1;ratioP1;P1;durP2;ratioP2;P2;SDS_P1;SDS_P2;PMS_P1;PMS_P2;Temp;Humidity;BMP_temperature;BMP_pressure;BME280_temperature;BME280_humidity;BME280_pressure;Samples;Min_cycle;Max_cycle;Signal;HPM_P1;HPM_P2
2023/04/24 00:01:24;;;;;;;1.60;0.80;;;11.80;93.00;;;;;;5059895;28;20529;-70
2023/04/24 00:03:51;;;;;;;1.10;0.80;;;11.80;93.10;;;;;;5076691;28;20856;-70
2023/04/24 00:06:18;;;;;;;1.40;1.00;;;11.80;93.00;;;;;;5085671;28;20410;-70
2023/04/24 00:08:45;;;;;;;1.40;0.85;;;11.80;93.00;;;;;;5059789;28;20780;-70
2023/04/24 00:11:13;;;;;;;2.00;1.10;;;11.80;93.20;;;;;;5058415;28;20413;-70
2023/04/24 00:13:40;;;;;;;1.20;0.90;;;11.80;93.90;;;;;;5061928;28;20437;-69
2023/04/24 00:16:07;;;;;;;1.10;0.95;;;11.80;93.50;;;;;;5071745;28;20441;-70
2023/04/24 00:18:33;;;;;;;1.30;0.93;;;11.80;93.40;;;;;;5069471;28;20449;-69
2023/04/24 00:21:00;;;;;;;1.00;0.90;;;11.80;93.50;;;;;;5072132;28;20729;-70
2023/04/24 00:23:27;;;;;;;1.20;0.80;;;11.80;93.60;;;;;;5078604;28;20432;-70
2023/04/24 00:25:54;;;;;;;1.20;1.00;;;11.70;93.70;;;;;;5064841;28;20531;-70
2023/04/24 00:28:22;;;;;;;1.50;1.10;;;11.70;93.80;;;;;;5058083;28;20453;-70
2023/04/24 00:30:49;;;;;;;1.70;1.00;;;11.60;94.40;;;;;;5071652;28;20429;-70
2023/04/24 00:33:15;;;;;;;1.17;1.07;;;11.70;94.00;;;;;;5057797;28;20442;-70
2023/04/24 00:35:42;;;;;;;1.40;1.20;;;11.70;94.00;;;;;;5061276;28;20438;-70
2023/04/24 00:38:09;;;;;;;1.60;1.00;;;11.60;94.10;;;;;;5064153;28;20454;-70
2023/04/24 00:40:35;;;;;;;2.33;1.10;;;11.60;94.00;;;;;;5069426;28;20527;-70
2023/04/24 00:43:02;;;;;;;1.30;1.20;;;11.60;94.10;;;;;;5063736;28;20767;-70
2023/04/24 00:45:31;;;;;;;1.30;1.20;;;11.70;94.20;;;;;;5065814;22;20437;-73
2023/04/24 00:47:58;;;;;;;1.30;1.10;;;11.70;94.00;;;;;;5047731;28;20417;-72
2023/04/24 00:50:26;;;;;;;2.10;1.23;;;11.70;94.10;;;;;;5050362;28;20417;-72
2023/04/24 00:52:53;;;;;;;1.67;1.00;;;11.70;93.90;;;;;;5048650;28;20495;-71
2023/04/24 00:55:20;;;;;;;2.20;1.13;;;11.70;92.00;;;;;;5049491;28;20432;-71
2023/04/24 00:57:47;;;;;;;2.00;1.30;;;11.70;91.80;;;;;;5046837;28;20976;-72
2023/04/24 01:00:16;;;;;;;1.40;1.10;;;11.70;90.90;;;;;;5041164;28;20428;-71
2023/04/24 01:02:45;;;;;;;1.20;1.10;;;11.70;91.10;;;;;;5050315;28;20429;-70
2023/04/24 01:05:13;;;;;;;2.30;1.27;;;11.70;91.20;;;;;;5041668;28;20898;-72
2023/04/24 01:07:43;;;;;;;1.40;1.27;;;11.70;91.10;;;;;;5048677;28;20479;-71
2023/04/24 01:10:11;;;;;;;1.90;1.20;;;11.60;91.00;;;;;;5049175;28;20429;-72
2023/04/24 01:12:38;;;;;;;1.20;1.10;;;11.60;90.80;;;;;;5047543;28;20433;-70
2023/04/24 01:15:06;;;;;;;1.20;1.10;;;11.60;90.90;;;;;;5048258;28;20425;-71
2023/04/24 01:17:33;;;;;;;1.43;1.10;;;11.60;90.60;;;;;;5049442;28;20823;-71
2023/04/24 01:20:05;;;;;;;1.40;1.30;;;11.60;90.50;;;;;;5048869;28;20795;-71
2023/04/24 01:22:34;;;;;;;1.90;1.40;;;11.60;90.20;;;;;;5047408;28;20520;-71
2023/04/24 01:25:00;;;;;;;1.50;1.30;;;11.50;88.50;;;;;;5048919;28;20421;-71
2023/04/24 01:27:27;;;;;;;3.10;1.50;;;11.50;87.20;;;;;;5047261;28;20433;-71
2023/04/24 01:29:54;;;;;;;1.90;1.60;;;11.50;86.30;;;;;;5048178;28;20417;-70
2023/04/24 01:32:21;;;;;;;1.50;1.40;;;11.40;85.90;;;;;;5045684;28;20425;-72
2023/04/24 01:34:49;;;;;;;1.40;1.30;;;11.40;86.20;;;;;;5050897;28;20542;-72
2023/04/24 01:37:16;;;;;;;2.15;1.65;;;11.40;86.70;;;;;;5049516;28;20421;-73
2023/04/24 01:39:44;;;;;;;2.00;1.40;;;11.40;87.60;;;;;;5047055;28;20473;-72
2023/04/24 01:42:12;;;;;;;2.58;2.30;;;11.40;88.50;;;;;;5045700;28;20433;-71
2023/04/24 01:44:39;;;;;;;3.03;2.70;;;11.30;87.60;;;;;;5047747;28;20421;-71
2023/04/24 01:47:07;;;;;;;3.10;2.80;;;11.20;86.00;;;;;;5048224;28;20432;-71
2023/04/24 01:49:34;;;;;;;3.47;3.17;;;11.20;86.00;;;;;;5046218;28;20957;-71
2023/04/24 01:52:01;;;;;;;4.97;3.45;;;11.10;86.60;;;;;;5047674;28;20714;-71
2023/04/24 01:54:28;;;;;;;3.70;3.40;;;11.00;85.90;;;;;;5047411;28;20420;-72
2023/04/24 01:56:56;;;;;;;4.32;3.92;;;10.90;86.60;;;;;;5046655;28;21038;-72
2023/04/24 01:59:26;;;;;;;4.10;3.70;;;10.80;87.00;;;;;;5047210;28;20424;-73
2023/04/24 02:01:52;;;;;;;4.40;4.10;;;10.70;87.80;;;;;;5048684;28;20472;-72
2023/04/24 02:04:19;;;;;;;3.97;3.60;;;10.60;88.20;;;;;;5047675;28;20413;-73
2023/04/24 02:06:46;;;;;;;4.70;4.30;;;10.50;89.10;;;;;;5048123;28;20890;-71
2023/04/24 02:09:12;;;;;;;4.82;4.43;;;10.40;89.60;;;;;;5046680;28;20444;-72
2023/04/24 02:11:39;;;;;;;5.57;4.80;;;10.30;90.10;;;;;;5050808;28;20444;-71
2023/04/24 02:14:07;;;;;;;4.90;4.45;;;10.20;90.40;;;;;;5048045;28;20433;-70
2023/04/24 02:16:35;;;;;;;4.82;4.32;;;10.10;90.80;;;;;;5052488;28;20547;-72
2023/04/24 02:19:02;;;;;;;5.30;4.90;;;10.00;91.20;;;;;;5053915;28;20814;-70
2023/04/24 02:21:30;;;;;;;4.93;4.53;;;10.00;91.50;;;;;;5051104;28;20433;-71
2023/04/24 02:23:57;;;;;;;5.00;4.60;;;9.90;91.70;;;;;;5052035;28;20425;-72
2023/04/24 02:26:24;;;;;;;5.95;5.35;;;9.80;92.10;;;;;;5051843;28;20413;-72
2023/04/24 02:28:51;;;;;;;5.80;5.30;;;9.70;92.50;;;;;;5050030;28;20433;-72
2023/04/24 02:31:19;;;;;;;6.20;4.90;;;9.70;92.80;;;;;;5049536;28;20429;-71
2023/04/24 02:33:46;;;;;;;5.70;5.10;;;9.60;93.00;;;;;;5049724;28;20429;-71
2023/04/24 02:36:13;;;;;;;5.38;4.88;;;9.60;93.20;;;;;;5050065;28;20436;-72
2023/04/24 02:38:40;;;;;;;5.60;5.10;;;9.60;93.40;;;;;;5049485;28;20433;-71
2023/04/24 02:41:07;;;;;;;5.00;4.60;;;9.60;93.10;;;;;;5050415;28;20432;-72
2023/04/24 02:43:34;;;;;;;5.20;4.80;;;9.50;93.30;;;;;;5049102;28;20481;-71
2023/04/24 02:46:01;;;;;;;5.30;4.90;;;9.50;93.30;;;;;;5049393;28;20535;-71
2023/04/24 02:48:29;;;;;;;6.10;5.60;;;9.40;93.60;;;;;;5049209;28;20463;-72
2023/04/24 02:50:57;;;;;;;6.07;5.47;;;9.40;93.40;;;;;;5050570;28;20482;-71
2023/04/24 02:53:24;;;;;;;5.90;5.35;;;9.50;93.40;;;;;;5049840;28;20417;-71
2023/04/24 02:55:50;;;;;;;6.03;5.53;;;9.50;93.50;;;;;;5050466;28;20460;-71
2023/04/24 02:58:19;;;;;;;6.30;5.80;;;9.60;93.40;;;;;;5048722;28;20432;-71
2023/04/24 03:00:46;;;;;;;6.07;5.57;;;9.60;93.30;;;;;;5050151;28;20425;-71
2023/04/24 03:03:13;;;;;;;6.40;5.80;;;9.70;92.80;;;;;;5049028;28;20433;-72
2023/04/24 03:05:41;;;;;;;7.25;6.40;;;9.80;92.50;;;;;;5045613;28;20415;-71
2023/04/24 03:08:08;;;;;;;7.35;6.55;;;9.80;92.60;;;;;;5048827;28;20444;-72
2023/04/24 03:10:34;;;;;;;7.17;6.57;;;9.70;92.40;;;;;;5050306;28;20455;-72
2023/04/24 03:13:01;;;;;;;7.23;6.63;;;9.80;92.60;;;;;;5053454;28;20851;-72
2023/04/24 03:15:28;;;;;;;7.75;7.05;;;9.80;92.30;;;;;;5057306;28;20859;-72
2023/04/24 03:17:55;;;;;;;7.78;7.03;;;9.80;91.90;;;;;;5053995;28;20468;-72
2023/04/24 03:20:22;;;;;;;6.80;6.20;;;9.70;92.10;;;;;;5048377;28;20825;-70
2023/04/24 03:22:50;;;;;;;6.88;6.20;;;9.70;92.20;;;;;;5051020;28;20924;-72
2023/04/24 03:25:16;;;;;;;7.00;6.40;;;9.70;92.00;;;;;;5050546;28;20444;-73
2023/04/24 03:27:43;;;;;;;6.80;6.20;;;9.70;92.20;;;;;;5049197;28;20432;-71
2023/04/24 03:30:10;;;;;;;7.13;6.43;;;9.70;91.90;;;;;;5049890;28;20432;-71
2023/04/24 03:32:39;;;;;;;7.10;6.50;;;9.70;91.70;;;;;;5049249;28;20448;-71
2023/04/24 03:35:06;;;;;;;7.35;6.75;;;9.70;92.00;;;;;;5049930;28;20475;-70
2023/04/24 03:37:33;;;;;;;7.97;7.18;;;9.60;92.20;;;;;;5049132;28;20503;-71
2023/04/24 03:40:01;;;;;;;7.63;6.90;;;9.60;92.00;;;;;;5050180;28;20823;-72
2023/04/24 03:42:28;;;;;;;7.65;6.85;;;9.60;92.10;;;;;;5048181;28;20441;-72
2023/04/24 03:44:55;;;;;;;7.30;6.60;;;9.50;92.00;;;;;;5048217;28;20425;-72
2023/04/24 03:47:22;;;;;;;7.63;6.93;;;9.40;92.20;;;;;;5049649;28;20417;-71
2023/04/24 03:49:48;;;;;;;7.30;6.60;;;9.40;92.40;;;;;;5049655;28;20425;-70
2023/04/24 03:52:15;;;;;;;7.65;7.05;;;9.30;92.50;;;;;;5048765;28;20421;-71
2023/04/24 03:54:42;;;;;;;7.70;7.00;;;9.30;92.70;;;;;;5049706;28;20436;-72
2023/04/24 03:57:10;;;;;;;7.40;6.80;;;9.30;92.60;;;;;;5050159;28;20433;-72
2023/04/24 03:59:36;;;;;;;7.93;7.22;;;9.30;92.80;;;;;;5051029;28;20430;-72
2023/04/24 04:02:03;;;;;;;7.85;7.15;;;9.40;93.10;;;;;;5050031;28;20413;-72
2023/04/24 04:04:30;;;;;;;7.88;7.18;;;9.40;92.70;;;;;;5048694;28;20879;-71
2023/04/24 04:06:59;;;;;;;7.33;6.73;;;9.50;92.70;;;;;;5048165;28;20523;-71
2023/04/24 04:09:26;;;;;;;7.40;6.70;;;9.50;92.40;;;;;;5048101;28;20471;-72
2023/04/24 04:11:53;;;;;;;7.43;6.72;;;9.50;92.10;;;;;;5047312;28;20761;-72
2023/04/24 04:14:21;;;;;;;7.50;6.80;;;9.50;92.20;;;;;;5053533;28;20416;-73
2023/04/24 04:16:48;;;;;;;7.70;7.00;;;9.50;92.10;;;;;;5049144;28;20429;-72
2023/04/24 04:19:15;;;;;;;7.00;6.40;;;9.50;92.10;;;;;;5049195;28;20413;-71
2023/04/24 04:21:41;;;;;;;7.38;6.68;;;9.50;92.10;;;;;;5048584;28;20460;-71
2023/04/24 04:24:09;;;;;;;7.00;6.40;;;9.50;92.30;;;;;;5047783;28;20429;-72
2023/04/24 04:26:37;;;;;;;6.45;5.95;;;9.50;92.30;;;;;;5048557;28;20884;-71
2023/04/24 04:29:04;;;;;;;6.60;6.10;;;9.50;92.20;;;;;;5047931;28;20417;-71
2023/04/24 04:31:32;;;;;;;6.60;6.00;;;9.50;91.90;;;;;;5049269;28;20428;-71
2023/04/24 04:33:59;;;;;;;7.05;6.45;;;9.50;92.10;;;;;;5047265;28;20433;-73
2023/04/24 04:36:26;;;;;;;6.88;6.22;;;9.50;92.20;;;;;;5048470;28;20425;-65
2023/04/24 04:38:54;;;;;;;7.00;6.40;;;9.50;92.30;;;;;;5048337;28;20437;-70
2023/04/24 04:41:21;;;;;;;6.55;6.00;;;9.50;92.20;;;;;;5048017;28;20886;-70
2023/04/24 04:43:48;;;;;;;6.60;6.10;;;9.60;92.50;;;;;;5047270;28;20429;-72
2023/04/24 04:46:14;;;;;;;6.90;6.30;;;9.50;92.50;;;;;;5048459;28;20580;-70
2023/04/24 04:48:42;;;;;;;6.65;5.95;;;9.60;92.30;;;;;;5048201;28;20455;-70
2023/04/24 04:51:09;;;;;;;6.20;5.70;;;9.60;92.20;;;;;;5048474;28;20425;-70
2023/04/24 04:53:36;;;;;;;6.10;5.60;;;9.60;92.60;;;;;;5046850;28;20439;-70
2023/04/24 04:56:03;;;;;;;6.13;5.57;;;9.60;92.50;;;;;;5048365;28;20480;-69
2023/04/24 04:58:30;;;;;;;5.63;5.20;;;9.60;92.20;;;;;;5046991;28;20441;-71
2023/04/24 05:00:57;;;;;;;6.05;5.55;;;9.60;92.40;;;;;;5048626;28;20425;-70
2023/04/24 05:03:23;;;;;;;6.00;5.50;;;9.70;92.70;;;;;;5046042;28;20433;-71
2023/04/24 05:05:52;;;;;;;5.93;5.53;;;9.60;92.40;;;;;;5043158;28;20424;-70
2023/04/24 05:08:18;;;;;;;5.70;5.30;;;9.70;92.20;;;;;;5049195;28;20428;-71
2023/04/24 05:10:45;;;;;;;5.80;5.30;;;9.70;92.30;;;;;;5048591;28;20417;-70
2023/04/24 05:13:12;;;;;;;5.43;4.93;;;9.70;92.50;;;;;;5036685;28;20439;-71
2023/04/24 05:15:39;;;;;;;6.35;5.75;;;9.70;92.40;;;;;;5043890;28;20440;-71
2023/04/24 05:18:05;;;;;;;6.10;5.50;;;9.70;92.60;;;;;;5048104;28;20439;-72
2023/04/24 05:20:32;;;;;;;5.82;5.32;;;9.70;92.60;;;;;;5045126;28;20437;-71
2023/04/24 05:23:00;;;;;;;5.80;5.30;;;9.70;92.90;;;;;;5047070;28;20433;-70
2023/04/24 05:25:27;;;;;;;6.55;5.85;;;9.70;92.60;;;;;;5042768;28;20802;-71
2023/04/24 05:27:54;;;;;;;5.93;5.43;;;9.70;92.50;;;;;;5044243;28;20436;-70
2023/04/24 05:30:21;;;;;;;6.50;6.00;;;9.70;92.90;;;;;;5043899;28;20441;-72
2023/04/24 05:32:48;;;;;;;6.07;5.50;;;9.70;92.80;;;;;;5040979;28;20446;-71
2023/04/24 05:35:14;;;;;;;6.80;6.20;;;9.70;93.00;;;;;;5040288;28;20482;-71
2023/04/24 05:37:41;;;;;;;6.70;6.10;;;9.70;93.60;;;;;;5046512;28;20544;-71
2023/04/24 05:40:11;;;;;;;6.60;6.10;;;9.80;93.20;;;;;;5049740;28;20429;-71
2023/04/24 05:42:37;;;;;;;6.18;5.68;;;9.80;93.50;;;;;;5045860;28;20440;-71
2023/04/24 05:45:05;;;;;;;5.53;5.03;;;9.70;94.10;;;;;;5047379;28;20417;-71
2023/04/24 05:47:32;;;;;;;6.22;5.72;;;9.70;93.90;;;;;;5048196;28;20868;-71
2023/04/24 05:49:59;;;;;;;6.25;5.75;;;9.70;94.00;;;;;;5047801;28;20492;-71
2023/04/24 05:52:25;;;;;;;6.70;6.10;;;9.70;94.20;;;;;;5046236;28;20930;-71
2023/04/24 05:54:53;;;;;;;6.70;6.10;;;9.70;94.40;;;;;;5046061;28;20433;-72
2023/04/24 05:57:21;;;;;;;6.60;6.00;;;9.70;94.70;;;;;;5053932;28;20490;-71
2023/04/24 05:59:48;;;;;;;7.00;6.28;;;9.70;94.30;;;;;;5050798;28;20810;-71
2023/04/24 06:02:15;;;;;;;6.65;6.03;;;9.70;94.20;;;;;;5049950;28;20439;-71
2023/04/24 06:04:42;;;;;;;6.30;5.70;;;9.70;94.20;;;;;;5051408;28;20452;-71
2023/04/24 06:07:09;;;;;;;7.03;6.43;;;9.70;94.30;;;;;;5050326;28;20518;-71
2023/04/24 06:09:36;;;;;;;6.85;6.30;;;9.70;94.70;;;;;;5050047;28;20428;-71
2023/04/24 06:12:03;;;;;;;6.32;5.80;;;9.80;94.10;;;;;;5048817;28;20512;-71
2023/04/24 06:14:31;;;;;;;6.95;6.35;;;9.70;94.40;;;;;;5049779;28;20503;-71
2023/04/24 06:16:58;;;;;;;7.07;6.47;;;9.70;94.30;;;;;;5047969;28;20421;-71
2023/04/24 06:19:25;;;;;;;7.53;6.83;;;9.60;95.50;;;;;;5045358;28;20427;-71
2023/04/24 06:21:51;;;;;;;7.75;7.05;;;9.60;96.70;;;;;;5047309;28;20912;-70
2023/04/24 06:24:18;;;;;;;14.95;8.00;;;9.50;97.10;;;;;;5047191;28;20440;-71
2023/04/24 06:26:45;;;;;;;7.07;6.45;;;9.50;97.40;;;;;;5050419;28;20456;-71
2023/04/24 06:29:12;;;;;;;8.00;6.53;;;9.40;98.00;;;;;;5050658;28;20523;-69
2023/04/24 06:31:40;;;;;;;5.32;4.82;;;9.20;98.90;;;;;;5049028;28;20463;-69
2023/04/24 06:34:07;;;;;;;4.53;4.13;;;9.00;99.00;;;;;;5048548;28;20425;-71
2023/04/24 06:36:34;;;;;;;6.60;5.05;;;8.90;99.90;;;;;;5050193;28;20432;-72
2023/04/24 06:39:01;;;;;;;6.20;4.20;;;8.90;99.90;;;;;;5047415;28;20453;-71
2023/04/24 06:41:29;;;;;;;5.00;4.05;;;8.90;99.90;;;;;;5046568;28;20828;-71
2023/04/24 06:43:56;;;;;;;5.30;3.93;;;8.80;99.90;;;;;;5047338;28;20483;-72
2023/04/24 06:46:25;;;;;;;5.13;4.13;;;8.60;99.90;;;;;;5048362;28;20429;-71
2023/04/24 06:48:55;;;;;;;4.88;4.47;;;8.50;99.90;;;;;;5045721;28;20435;-73
2023/04/24 06:51:23;;;;;;;6.05;4.60;;;8.30;99.90;;;;;;5047369;28;20448;-72
2023/04/24 06:53:49;;;;;;;5.15;4.10;;;8.10;99.90;;;;;;5049306;28;20441;-73
2023/04/24 06:56:16;;;;;;;4.47;3.80;;;8.10;99.90;;;;;;5037212;28;20452;-73
2023/04/24 06:58:43;;;;;;;4.72;3.60;;;8.00;99.90;;;;;;5036780;28;20445;-72
2023/04/24 07:01:10;;;;;;;5.00;3.60;;;7.90;99.90;;;;;;5038539;28;20429;-71
2023/04/24 07:03:37;;;;;;;3.80;3.50;;;7.90;99.90;;;;;;5048772;28;20464;-69
2023/04/24 07:06:06;;;;;;;3.53;3.22;;;7.90;99.90;;;;;;5044207;28;20460;-71
2023/04/24 07:08:33;;;;;;;3.90;3.50;;;7.80;99.90;;;;;;5036750;28;20441;-71
2023/04/24 07:11:00;;;;;;;4.22;3.92;;;7.90;99.90;;;;;;5045976;28;20417;-71
2023/04/24 07:13:28;;;;;;;4.20;3.83;;;7.90;99.90;;;;;;5045182;28;20427;-72
2023/04/24 07:15:56;;;;;;;4.15;3.85;;;7.90;99.90;;;;;;5044376;28;20441;-71
2023/04/24 07:18:22;;;;;;;3.88;3.30;;;7.90;99.90;;;;;;5043085;28;20511;-71
2023/04/24 07:20:49;;;;;;;4.10;3.80;;;7.90;99.90;;;;;;5041195;28;20947;-71
2023/04/24 07:23:18;;;;;;;4.47;4.07;;;7.90;99.90;;;;;;5043084;28;20553;-70
2023/04/24 07:25:44;;;;;;;4.40;4.00;;;7.90;99.90;;;;;;5038577;28;20437;-70
2023/04/24 07:28:11;;;;;;;4.13;3.53;;;7.90;99.90;;;;;;5039451;28;20512;-71
2023/04/24 07:30:38;;;;;;;3.97;3.58;;;7.90;99.90;;;;;;5035483;28;20429;-69
2023/04/24 07:33:06;;;;;;;4.07;3.50;;;7.90;99.90;;;;;;5034330;28;20432;-72
2023/04/24 07:35:34;;;;;;;3.90;3.60;;;7.90;99.90;;;;;;5036496;28;20421;-71
2023/04/24 07:38:00;;;;;;;3.80;3.50;;;7.90;99.90;;;;;;5041500;28;20516;-72
2023/04/24 07:40:29;;;;;;;3.13;2.83;;;7.80;99.90;;;;;;5038963;28;20429;-73
2023/04/24 07:42:56;;;;;;;2.60;2.40;;;7.80;99.90;;;;;;5034600;28;20875;-73
2023/04/24 07:45:25;;;;;;;2.20;2.00;;;7.70;99.90;;;;;;5039265;28;20518;-73
2023/04/24 07:47:52;;;;;;;2.20;2.00;;;7.60;99.90;;;;;;5038712;28;20426;-73
2023/04/24 07:50:19;;;;;;;2.63;1.90;;;7.50;99.90;;;;;;5039846;28;20441;-73
2023/04/24 07:52:46;;;;;;;3.30;2.00;;;7.40;99.90;;;;;;5037960;28;20444;-72
2023/04/24 07:55:13;;;;;;;3.20;2.47;;;7.30;99.90;;;;;;5037845;28;20437;-72
2023/04/24 07:57:41;;;;;;;4.10;2.30;;;7.30;99.90;;;;;;5037363;28;20432;-72
2023/04/24 08:00:09;;;;;;;3.70;1.90;;;7.20;99.90;;;;;;5031295;28;20431;-72
2023/04/24 08:02:35;;;;;;;2.20;1.90;;;7.10;99.90;;;;;;5038002;28;20433;-72
2023/04/24 08:05:03;;;;;;;3.65;2.20;;;7.10;99.90;;;;;;5040243;28;20440;-73
2023/04/24 08:07:30;;;;;;;2.20;1.90;;;7.00;99.90;;;;;;5045601;28;20497;-72
2023/04/24 08:09:56;;;;;;;2.90;2.17;;;7.00;99.90;;;;;;5045878;28;20427;-73
2023/04/24 08:12:23;;;;;;;3.20;2.17;;;7.00;99.90;;;;;;5045845;28;20435;-73
2023/04/24 08:14:51;;;;;;;4.63;2.55;;;7.00;99.90;;;;;;5038375;28;20502;-74
2023/04/24 08:17:18;;;;;;;2.80;2.40;;;6.90;99.90;;;;;;5042127;28;20429;-71
2023/04/24 08:19:48;;;;;;;2.30;1.80;;;7.00;99.90;;;;;;5042268;28;20425;-72
2023/04/24 08:22:15;;;;;;;2.80;2.17;;;6.80;99.90;;;;;;5036280;28;20471;-73
2023/04/24 08:24:41;;;;;;;2.80;2.20;;;6.80;99.90;;;;;;5040390;28;22454;-73
2023/04/24 08:27:09;;;;;;;3.10;2.10;;;6.80;99.90;;;;;;5039586;28;20436;-72
2023/04/24 08:29:36;;;;;;;3.60;2.10;;;6.70;99.90;;;;;;5041185;28;20433;-74
2023/04/24 08:32:04;;;;;;;4.53;2.30;;;6.60;99.90;;;;;;5038932;28;20436;-73
2023/04/24 08:34:31;;;;;;;4.72;2.47;;;6.60;99.90;;;;;;5038387;28;20900;-73
2023/04/24 08:36:57;;;;;;;2.50;2.10;;;6.60;99.90;;;;;;5038220;28;20568;-74
2023/04/24 08:39:24;;;;;;;3.10;1.60;;;6.50;99.90;;;;;;5042832;28;20891;-74
2023/04/24 08:41:53;;;;;;;3.00;1.80;;;6.50;99.90;;;;;;5050699;28;20425;-72
2023/04/24 08:44:20;;;;;;;2.70;1.90;;;6.50;99.90;;;;;;5045859;28;20512;-72
2023/04/24 08:46:49;;;;;;;2.92;2.20;;;6.40;99.90;;;;;;5042046;28;20450;-71
2023/04/24 08:49:17;;;;;;;3.88;2.60;;;6.40;99.90;;;;;;5047693;28;20425;-72
2023/04/24 08:51:44;;;;;;;3.55;2.83;;;6.50;99.90;;;;;;5042101;28;20743;-73
2023/04/24 08:54:12;;;;;;;3.60;2.55;;;6.50;99.90;;;;;;5039811;28;20424;-73
2023/04/24 08:56:41;;;;;;;4.15;2.63;;;6.50;99.90;;;;;;5059328;22;20639;-70
2023/04/24 08:59:08;;;;;;;3.60;3.30;;;6.50;99.90;;;;;;5035575;28;20429;-69
2023/04/24 09:01:39;;;;;;;3.63;3.33;;;6.50;99.90;;;;;;5034767;28;20433;-69
2023/04/24 09:04:09;;;;;;;5.50;3.58;;;6.50;99.90;;;;;;5039460;28;20457;-69
2023/04/24 09:06:37;;;;;;;4.18;3.78;;;6.60;99.90;;;;;;5037583;28;20556;-69
2023/04/24 09:09:05;;;;;;;5.00;4.60;;;6.60;99.90;;;;;;5039924;28;20419;-69
2023/04/24 09:11:32;;;;;;;5.30;4.80;;;6.60;99.90;;;;;;5039421;28;20505;-69
2023/04/24 09:13:59;;;;;;;5.93;4.78;;;6.70;99.90;;;;;;5039849;28;20417;-69
2023/04/24 09:16:27;;;;;;;5.50;5.00;;;6.70;99.90;;;;;;5040257;28;20467;-70
2023/04/24 09:18:54;;;;;;;6.30;5.70;;;6.70;99.90;;;;;;5041681;28;20432;-68
2023/04/24 09:21:22;;;;;;;7.63;5.80;;;6.80;99.90;;;;;;5048010;28;20440;-69
2023/04/24 09:23:59;;;;;;;8.00;7.20;;;6.80;99.90;;;;;;5042736;28;20425;-69
2023/04/24 09:26:26;;;;;;;8.73;7.25;;;6.90;99.90;;;;;;5038138;28;20479;-69
2023/04/24 09:28:54;;;;;;;9.40;7.30;;;6.90;99.90;;;;;;5049090;28;20423;-69
2023/04/24 09:31:22;;;;;;;9.25;7.43;;;7.00;99.90;;;;;;5043152;28;20898;-69
2023/04/24 09:33:56;;;;;;;8.77;8.00;;;7.00;99.90;;;;;;5050345;28;20429;-69
2023/04/24 09:36:28;;;;;;;9.60;8.70;;;7.10;99.90;;;;;;5044096;28;20934;-70
2023/04/24 09:38:59;;;;;;;9.60;8.70;;;7.10;99.90;;;;;;5050749;28;20572;-69
2023/04/24 09:41:27;;;;;;;9.13;7.90;;;7.20;99.90;;;;;;5046614;28;20431;-69
2023/04/24 09:43:55;;;;;;;9.90;8.95;;;7.20;99.90;;;;;;5046503;28;20487;-69
2023/04/24 09:46:22;;;;;;;10.70;9.38;;;7.20;99.90;;;;;;5042444;28;20550;-70
2023/04/24 09:48:49;;;;;;;10.32;9.32;;;7.30;99.90;;;;;;5046391;28;20443;-69
2023/04/24 09:51:15;;;;;;;10.48;9.52;;;7.30;99.90;;;;;;5043771;28;20439;-69
2023/04/24 09:53:47;;;;;;;11.55;10.20;;;7.40;99.90;;;;;;5044792;28;20626;-69
2023/04/24 09:56:15;;;;;;;11.90;10.70;;;7.50;99.90;;;;;;5035129;28;20487;-70
2023/04/24 09:58:41;;;;;;;13.20;11.37;;;7.60;99.90;;;;;;5046334;28;22471;-69
2023/04/24 10:01:08;;;;;;;12.30;11.10;;;7.70;99.90;;;;;;5040064;28;20449;-69
2023/04/24 10:03:35;;;;;;;12.63;11.32;;;7.80;99.90;;;;;;5039358;28;20429;-69
2023/04/24 10:06:02;;;;;;;11.90;10.60;;;7.90;99.90;;;;;;5040418;28;20451;-69
2023/04/24 10:08:35;;;;;;;11.32;10.18;;;7.90;99.90;;;;;;5043360;28;20417;-69
2023/04/24 10:11:02;;;;;;;11.02;10.00;;;7.90;99.90;;;;;;5043742;28;20516;-69
2023/04/24 10:13:31;;;;;;;11.23;10.10;;;8.00;99.90;;;;;;5043554;28;20456;-72
2023/04/24 10:16:01;;;;;;;10.90;9.80;;;8.10;99.90;;;;;;5038787;28;20433;-69
2023/04/24 10:18:28;;;;;;;10.93;9.10;;;8.10;99.90;;;;;;5039374;28;20436;-69
2023/04/24 10:20:55;;;;;;;10.40;9.40;;;8.10;99.90;;;;;;5047117;28;20429;-69
2023/04/24 10:23:23;;;;;;;11.25;9.98;;;8.30;99.90;;;;;;5039283;28;20792;-69
2023/04/24 10:25:51;;;;;;;10.00;8.98;;;8.50;99.90;;;;;;5043855;28;20417;-69
2023/04/24 10:28:19;;;;;;;7.82;6.70;;;8.60;99.90;;;;;;5043863;28;20409;-69
2023/04/24 10:30:49;;;;;;;8.50;7.60;;;8.60;99.90;;;;;;5043036;28;20439;-68
2023/04/24 10:33:17;;;;;;;8.77;7.30;;;8.50;99.90;;;;;;5046476;28;20840;-69
2023/04/24 10:35:48;;;;;;;9.40;6.05;;;8.50;99.90;;;;;;5045277;28;20602;-69
2023/04/24 10:38:19;;;;;;;8.75;6.30;;;8.40;99.90;;;;;;5047585;28;20573;-69
2023/04/24 10:40:46;;;;;;;7.60;6.57;;;8.40;99.90;;;;;;5041601;28;22411;-70
2023/04/24 10:43:18;;;;;;;7.38;5.90;;;8.50;99.90;;;;;;5042352;28;20445;-69
2023/04/24 10:46:03;;;;;;;7.07;5.90;;;8.50;99.90;;;;;;5038716;28;20959;-69
2023/04/24 10:48:30;;;;;;;8.77;5.60;;;8.50;99.90;;;;;;5044136;28;20464;-69
2023/04/24 10:50:57;;;;;;;6.45;5.20;;;8.50;99.90;;;;;;5046446;28;20425;-69
2023/04/24 10:53:26;;;;;;;7.63;5.97;;;8.50;99.90;;;;;;5037118;28;21094;-69
2023/04/24 10:55:58;;;;;;;7.40;5.25;;;8.70;99.90;;;;;;5041676;28;20437;-69
2023/04/24 10:58:38;;;;;;;6.05;5.00;;;8.80;99.90;;;;;;5040684;28;20525;-68
2023/04/24 11:01:06;;;;;;;6.20;4.93;;;9.00;99.90;;;;;;5037997;28;20767;-71
2023/04/24 11:03:35;;;;;;;7.03;4.57;;;9.20;99.90;;;;;;5045877;28;20523;-70
2023/04/24 11:06:03;;;;;;;6.53;5.82;;;9.50;99.90;;;;;;5046222;28;20436;-68
2023/04/24 11:08:32;;;;;;;7.05;5.00;;;9.70;99.90;;;;;;5041457;28;20435;-69
2023/04/24 11:11:02;;;;;;;5.90;4.47;;;9.90;99.90;;;;;;5041347;28;20839;-70
2023/04/24 11:13:57;;;;;;;6.70;5.03;;;10.10;99.90;;;;;;5040520;28;20912;-69
2023/04/24 11:16:30;;;;;;;6.20;4.82;;;10.00;99.90;;;;;;5041097;28;20529;-68
2023/04/24 11:19:02;;;;;;;7.60;5.18;;;9.90;99.90;;;;;;5043119;28;20425;-68
2023/04/24 11:21:33;;;;;;;5.90;4.90;;;9.90;99.90;;;;;;5037525;28;20927;-68
2023/04/24 11:24:20;;;;;;;7.25;5.22;;;10.00;99.90;;;;;;5038434;28;20436;-68
2023/04/24 11:26:46;;;;;;;6.43;5.35;;;10.00;99.90;;;;;;5043556;28;20546;-68
2023/04/24 11:29:13;;;;;;;6.32;5.00;;;10.10;99.90;;;;;;5039483;28;20444;-69
2023/04/24 11:31:42;;;;;;;5.72;5.13;;;10.30;99.90;;;;;;5036473;28;20429;-68
2023/04/24 11:34:10;;;;;;;6.78;4.60;;;10.50;99.90;;;;;;5043600;28;20514;-68
2023/04/24 11:36:37;;;;;;;6.80;4.70;;;10.60;99.90;;;;;;5045003;28;20424;-68
2023/04/24 11:39:04;;;;;;;5.30;4.68;;;10.60;99.90;;;;;;5038622;28;20432;-68
2023/04/24 11:41:31;;;;;;;5.90;4.82;;;10.60;99.90;;;;;;5047921;28;20598;-67
2023/04/24 11:43:58;;;;;;;8.13;5.15;;;10.50;99.90;;;;;;5049450;28;20803;-67
2023/04/24 11:46:29;;;;;;;7.53;5.00;;;10.50;99.90;;;;;;5042905;28;20521;-69
2023/04/24 11:48:57;;;;;;;5.70;5.05;;;10.70;99.90;;;;;;5042289;28;20501;-70
2023/04/24 11:51:25;;;;;;;6.57;5.28;;;11.00;99.90;;;;;;5038832;28;20451;-70
2023/04/24 11:53:51;;;;;;;6.07;5.45;;;11.30;99.90;;;;;;5038424;28;20508;-68
2023/04/24 11:56:19;;;;;;;6.38;4.38;;;11.70;98.60;;;;;;5046077;28;20421;-67
2023/04/24 11:58:46;;;;;;;5.47;4.18;;;12.00;96.20;;;;;;5040159;28;21352;-69
2023/04/24 12:01:13;;;;;;;5.20;3.80;;;12.00;94.40;;;;;;5036816;28;20434;-68
2023/04/24 12:03:42;;;;;;;4.18;3.78;;;12.00;94.70;;;;;;5043927;28;20928;-68
2023/04/24 12:06:12;;;;;;;4.40;4.00;;;11.90;94.60;;;;;;5040502;28;20519;-69
2023/04/24 12:08:39;;;;;;;5.03;4.10;;;12.00;95.70;;;;;;5044985;28;20427;-68
2023/04/24 12:11:07;;;;;;;5.15;3.67;;;12.30;95.00;;;;;;5045741;28;20431;-68
2023/04/24 12:13:35;;;;;;;4.60;4.10;;;12.50;92.60;;;;;;5035760;28;20457;-70
2023/04/24 12:16:04;;;;;;;5.20;4.60;;;12.50;91.90;;;;;;5033213;28;20914;-68
2023/04/24 12:18:30;;;;;;;6.90;4.80;;;12.40;91.60;;;;;;5047384;28;20556;-70
2023/04/24 12:21:17;;;;;;;6.68;4.60;;;12.20;91.40;;;;;;5041773;28;20439;-70
2023/04/24 12:23:44;;;;;;;6.63;4.40;;;12.20;94.10;;;;;;5041743;28;20459;-69
2023/04/24 12:26:11;;;;;;;5.55;5.05;;;12.10;91.70;;;;;;5047966;28;20421;-69
2023/04/24 12:28:39;;;;;;;5.55;4.70;;;12.00;92.80;;;;;;5037434;28;20491;-68
2023/04/24 12:31:07;;;;;;;7.15;4.65;;;11.90;93.00;;;;;;5038705;28;20770;-69
2023/04/24 12:33:35;;;;;;;5.75;5.25;;;11.80;93.00;;;;;;5037644;28;20418;-69
2023/04/24 12:36:02;;;;;;;6.03;5.43;;;11.60;93.80;;;;;;5045788;28;20417;-69
2023/04/24 12:38:30;;;;;;;7.13;4.88;;;11.60;94.30;;;;;;5050123;28;20433;-69
2023/04/24 12:41:05;;;;;;;6.25;4.78;;;11.80;92.50;;;;;;5042736;28;20498;-69
2023/04/24 12:43:32;;;;;;;5.95;4.70;;;12.00;92.60;;;;;;5032690;28;21549;-67
2023/04/24 12:45:59;;;;;;;5.75;4.50;;;12.30;92.10;;;;;;5042112;28;20423;-69
2023/04/24 12:48:26;;;;;;;8.88;5.20;;;12.60;90.10;;;;;;5037227;28;20433;-69
2023/04/24 12:50:53;;;;;;;5.15;4.28;;;12.90;90.10;;;;;;5039055;28;20543;-69
2023/04/24 12:53:19;;;;;;;8.43;4.80;;;13.00;88.30;;;;;;5040530;28;20432;-69
2023/04/24 12:55:52;;;;;;;7.15;4.60;;;12.90;87.50;;;;;;5035815;28;20439;-67